M I D A S
Marine Information and Data Acquisition System
Tripno 1367 of the Zeeleeuw from 2007-11-28 07:47:49 to 2007-11-28 14:43:21
Back to CruiseResearch ActivitiesStationsMapUnderway DataData graphs

EquipmentUnitsComment
TimeDGPSUTC
LatitudeDGPSDM.mWGS84
LongitudeDGPSDM.mWGS84
HeadingGyrodeg 
SOGDGPSknotsSpeed over ground
COGDGPSdegCourse over ground
DepthEcho soundermeters200 kHz
Missing or incorrect values are displayed as -999
Navigation data collected by the RV Zeeleeuw from 2007-11-28 07:53:35 to 2007-11-28 14:54:06
Time Latitude Longitude Heading SOG COG Depth
2007-11-28 07:54:40 51°13.616 2°56.028 114.1 4.5 294 -999
2007-11-28 07:55:40 51°13.656 2°55.9 122 5.6 300 -999
2007-11-28 07:56:40 51°13.695 2°55.791 115 4 297 -999
2007-11-28 07:57:40 51°13.713 2°55.722 94.3 1.6 288 10.9
2007-11-28 07:58:40 51°13.717 2°55.7 61.9 0.5 322 10.1
2007-11-28 07:59:40 51°13.747 2°55.704 4.4 4 350 9.8
2007-11-28 08:00:40 51°13.833 2°55.639 335.1 6.9 334 9.3
2007-11-28 08:01:40 51°13.951 2°55.546 335.8 8.5 334 9.2
2007-11-28 08:02:40 51°14.079 2°55.447 335.9 8.4 333 8.4
2007-11-28 08:03:40 51°14.194 2°55.346 329.3 7.6 326 9.5
2007-11-28 08:04:39 51°14.285 2°55.215 313.9 7.4 310 9.4
2007-11-28 08:05:40 51°14.379 2°55.016 307.9 10.8 305 8.9
2007-11-28 08:06:40 51°14.495 2°54.752 314 12.7 310 9.3
2007-11-28 08:07:39 51°14.655 2°54.547 335.3 12.5 328 8.5
2007-11-28 08:08:36 51°14.827 2°54.391 337.3 12.4 330 8
2007-11-28 08:09:36 51°15.004 2°54.228 336.4 12.1 329 7.1
2007-11-28 08:10:37 51°15.174 2°54.036 333.1 12.5 330 7.7
2007-11-28 08:11:37 51°15.365 2°53.913 344.5 12.5 336 8.2
2007-11-28 08:12:37 51°15.55 2°53.759 340.6 12.5 334 8.8
2007-11-28 08:13:37 51°15.74 2°53.623 342.7 12.6 334 9.4
2007-11-28 08:14:37 51°15.922 2°53.453 338 12.6 331 9.8
2007-11-28 08:15:37 51°16.107 2°53.296 338.2 12.7 330 9.9
2007-11-28 08:16:37 51°16.293 2°53.137 340 12.6 332 10.1
2007-11-28 08:17:37 51°16.476 2°52.974 337.4 12.6 331 10.2
2007-11-28 08:18:37 51°16.661 2°52.816 338.6 12.6 333 9.8
2007-11-28 08:19:37 51°16.851 2°52.686 344 12.3 339 7.8
2007-11-28 08:20:37 51°17.038 2°52.548 337.1 12.4 331 8.2
2007-11-28 08:21:37 51°17.22 2°52.388 337 12.6 333 8.5
2007-11-28 08:22:37 51°17.405 2°52.233 339.2 12.4 333 9
2007-11-28 08:23:37 51°17.543 2°51.99 304 12.7 298 8.8
2007-11-28 08:24:37 51°17.621 2°51.674 294 12.8 290 8.4
2007-11-28 08:25:37 51°17.709 2°51.365 300.4 12.8 295 8.3
2007-11-28 08:26:37 51°17.791 2°51.047 297.6 13 294 9.2
2007-11-28 08:27:37 51°17.882 2°50.731 299.6 13.1 295 10.6
2007-11-28 08:28:37 51°17.979 2°50.42 301.3 13.1 297 11.6
2007-11-28 08:29:37 51°18.073 2°50.108 300.8 13 296 12.4
2007-11-28 08:30:37 51°18.169 2°49.796 301.4 13.1 296 12.4
2007-11-28 08:31:37 51°18.249 2°49.472 293.7 13.2 289 11.1
2007-11-28 08:32:37 51°18.321 2°49.141 293.7 13.2 290 9
2007-11-28 08:33:37 51°18.392 2°48.807 292.2 13.4 289 8.3
2007-11-28 08:34:37 51°18.468 2°48.473 293.2 13.3 289 9.5
2007-11-28 08:35:37 51°18.546 2°48.136 294.7 13.6 291 11.9
2007-11-28 08:36:37 51°18.615 2°47.797 290.5 13.3 288 13.4
2007-11-28 08:37:37 51°18.681 2°47.461 291.8 13.3 287 16
2007-11-28 08:38:37 51°18.746 2°47.123 291.9 13.4 287 17.2
2007-11-28 08:39:37 51°18.809 2°46.782 291.4 13.4 286 18.5
2007-11-28 08:40:37 51°18.875 2°46.442 292.6 13.4 288 19.4
2007-11-28 08:41:37 51°18.942 2°46.103 293.1 13.3 288 19.5
2007-11-28 08:42:37 51°19.011 2°45.766 291.9 13.3 288 17.9
2007-11-28 08:43:37 51°19.078 2°45.429 292.2 13.2 287 13.9
2007-11-28 08:44:37 51°19.147 2°45.091 293.2 13.5 290 10.5
2007-11-28 08:45:37 51°19.216 2°44.749 292 13.7 289 13.3
2007-11-28 08:46:37 51°19.287 2°44.406 292.8 13.5 288 20.1
2007-11-28 08:47:37 51°19.355 2°44.064 292.2 13.5 287 21.5
2007-11-28 08:48:37 51°19.421 2°43.725 293.2 13.4 288 22.3
2007-11-28 08:49:37 51°19.49 2°43.386 293 13.4 289 23.1
2007-11-28 08:50:37 51°19.56 2°43.048 292.5 13.3 288 23.3
2007-11-28 08:51:37 51°19.63 2°42.712 291.8 13.4 288 23.8
2007-11-28 08:52:37 51°19.698 2°42.376 292 13.3 288 23.3
2007-11-28 08:53:37 51°19.764 2°42.038 292.2 13.4 288 21.7
2007-11-28 08:54:37 51°19.83 2°41.697 292.5 13.5 286 19.1
2007-11-28 08:55:37 51°19.898 2°41.355 292 13.6 287 17.8
2007-11-28 08:56:37 51°19.965 2°41.01 289.5 13.6 285 21.7
2007-11-28 08:57:37 51°20.021 2°40.657 288.6 13.7 284 24.3
2007-11-28 08:58:37 51°20.074 2°40.304 288.2 13.6 284 27
2007-11-28 08:59:37 51°20.128 2°39.956 287.4 13.4 283 26.6
2007-11-28 09:00:37 51°20.177 2°39.608 288.1 13.4 283 26
2007-11-28 09:01:37 51°20.228 2°39.259 288.1 13.5 282 23.7
2007-11-28 09:02:37 51°20.278 2°38.911 288.1 13.4 283 23.1
2007-11-28 09:03:37 51°20.326 2°38.566 288.8 13.4 284 21.8
2007-11-28 09:04:37 51°20.377 2°38.22 288.6 13.4 283 21.8
2007-11-28 09:05:37 51°20.429 2°37.873 287.9 13.4 283 20.5
2007-11-28 09:06:37 51°20.481 2°37.525 288.5 13.4 284 21.3
2007-11-28 09:07:37 51°20.534 2°37.177 288.2 13.5 283 20.8
2007-11-28 09:08:37 51°20.585 2°36.829 288.3 13.4 283 19.2
2007-11-28 09:09:37 51°20.635 2°36.48 288.1 13.6 283 19.4
2007-11-28 09:10:37 51°20.684 2°36.129 288.4 13.6 283 19.3
2007-11-28 09:11:37 51°20.735 2°35.776 288.2 13.6 284 21.9
2007-11-28 09:12:37 51°20.785 2°35.422 287.7 13.7 282 27.6
2007-11-28 09:13:37 51°20.836 2°35.069 287.9 13.7 283 30.5
2007-11-28 09:14:37 51°20.887 2°34.717 288.1 13.6 284 30.2
2007-11-28 09:15:37 51°20.936 2°34.364 288.7 13.5 282 29.4
2007-11-28 09:16:37 51°20.985 2°34.011 288.3 13.6 282 29.4
2007-11-28 09:17:37 51°21.035 2°33.659 288.4 13.7 282 30.1
2007-11-28 09:18:37 51°21.087 2°33.306 288.6 13.7 284 29.6
2007-11-28 09:19:37 51°21.148 2°32.96 299.1 13.4 293 27
2007-11-28 09:20:37 51°21.302 2°32.734 343.6 12.4 336 22.5
2007-11-28 09:21:37 51°21.5 2°32.711 12.4 12 2 20.4
2007-11-28 09:22:37 51°21.699 2°32.731 9.9 12.3 -999 21.6
2007-11-28 09:23:37 51°21.899 2°32.732 6.1 12 357 25.8
2007-11-28 09:24:37 51°22.099 2°32.718 6.6 12 355 29.4
2007-11-28 09:25:37 51°22.3 2°32.706 5.3 12 355 29.3
2007-11-28 09:26:37 51°22.501 2°32.666 352.7 12.5 342 30.3
2007-11-28 09:27:37 51°22.674 2°32.48 319.2 13 307 28.8
2007-11-28 09:28:37 51°22.717 2°32.138 272.5 13.8 267 29.6
2007-11-28 09:29:37 51°22.701 2°31.767 271.7 14 269 28.8
2007-11-28 09:30:37 51°22.695 2°31.392 273.9 14.1 270 29.8
2007-11-28 09:31:37 51°22.694 2°31.016 274.7 14.1 270 28.6
2007-11-28 09:32:37 51°22.693 2°30.642 273.8 14.2 271 29.8
2007-11-28 09:33:37 51°22.693 2°30.27 275 13.9 270 31.2
2007-11-28 09:34:37 51°22.695 2°29.895 276.1 14 271 31.6
2007-11-28 09:35:37 51°22.69 2°29.524 272.9 14 267 32.4
2007-11-28 09:36:37 51°22.678 2°29.151 273 14 267 31.9
2007-11-28 09:37:37 51°22.668 2°28.781 273.1 13.8 267 32.7
2007-11-28 09:38:37 51°22.656 2°28.411 273.1 14 267 32.6
2007-11-28 09:39:37 51°22.644 2°28.043 273.1 13.9 267 32.9
2007-11-28 09:40:37 51°22.631 2°27.672 273.7 13.9 267 33.5
2007-11-28 09:41:37 51°22.619 2°27.301 273.4 13.9 267 33.3
2007-11-28 09:42:37 51°22.609 2°26.932 273.5 13.9 267 32.5
2007-11-28 09:43:37 51°22.596 2°26.56 273.2 14.1 267 31.8
2007-11-28 09:44:37 51°22.584 2°26.189 272.4 14 266 28.7
2007-11-28 09:45:37 51°22.574 2°25.817 273.8 13.9 269 23.7
2007-11-28 09:46:37 51°22.628 2°25.465 303.4 13.6 294 18.9
2007-11-28 09:47:37 51°22.747 2°25.166 321 13.2 311 27.8
2007-11-28 09:48:37 51°22.93 2°25.019 359.6 12.1 351 32
2007-11-28 09:49:37 51°23.126 2°25.041 14.6 11.8 9 32.1
2007-11-28 09:50:37 51°23.318 2°25.071 15.7 11.4 6 32.5
2007-11-28 09:51:37 51°23.512 2°25.096 13.5 11.7 7 32.5
2007-11-28 09:52:37 51°23.708 2°25.112 9.9 11.8 4 32.1
2007-11-28 09:53:37 51°23.899 2°25.123 12.6 11.4 6 32.8
2007-11-28 09:54:37 51°24.087 2°25.126 12.2 11 2 33.7
2007-11-28 09:55:37 51°24.274 2°25.133 11.6 11.3 3 32.9
2007-11-28 09:56:37 51°24.464 2°25.135 8.3 11.4 1 33.4
2007-11-28 09:57:37 51°24.652 2°25.135 13.3 11.2 3 34
2007-11-28 09:58:37 51°24.84 2°25.14 9.2 11.2 2 32.4
2007-11-28 09:59:37 51°25.03 2°25.143 8.4 11.6 352 34.6
2007-11-28 10:00:37 51°25.218 2°25.154 9 11.3 3 32.2
2007-11-28 10:01:37 51°25.404 2°25.159 12.3 11.2 355 29.9
2007-11-28 10:02:37 51°25.589 2°25.168 9.6 11.1 5 28.1
2007-11-28 10:03:37 51°25.779 2°25.173 9.7 11.6 5 26.1
2007-11-28 10:04:37 51°25.965 2°25.185 11 11.4 5 28.2
2007-11-28 10:05:37 51°26.153 2°25.201 12.4 11 5 32.3
2007-11-28 10:06:37 51°26.34 2°25.219 13.7 11.1 4 31.8
2007-11-28 10:07:37 51°26.525 2°25.234 8.7 11.1 3 32.9
2007-11-28 10:08:37 51°26.711 2°25.249 10.4 11.3 3 33.5
2007-11-28 10:09:37 51°26.893 2°25.267 11.4 11.1 6 33.5
2007-11-28 10:10:37 51°27.078 2°25.288 10.7 10.7 8 33.6
2007-11-28 10:11:37 51°27.263 2°25.299 7.6 11 2 34
2007-11-28 10:12:37 51°27.444 2°25.316 11 11 8 33.9
2007-11-28 10:13:37 51°27.626 2°25.331 10.1 10.9 3 34.2
2007-11-28 10:14:37 51°27.807 2°25.351 11.2 10.7 1 34.1
2007-11-28 10:15:37 51°27.989 2°25.365 7.5 11 7 34.2
2007-11-28 10:16:37 51°28.173 2°25.38 9.9 11 3 36.1
2007-11-28 10:17:37 51°28.356 2°25.394 10.2 10.9 -999 33.4
2007-11-28 10:18:37 51°28.539 2°25.418 8.7 11.1 357 35.4
2007-11-28 10:19:37 51°28.722 2°25.451 8.4 10.7 2 30.4
2007-11-28 10:20:37 51°28.904 2°25.476 12.4 10.9 8 32.4
2007-11-28 10:21:37 51°29.084 2°25.501 7.3 11 2 31.7
2007-11-28 10:22:37 51°29.265 2°25.498 3.9 10.8 359 26.6
2007-11-28 10:23:37 51°29.45 2°25.494 2.7 11.1 359 27.6
2007-11-28 10:24:37 51°29.634 2°25.499 6 11.1 8 28.8
2007-11-28 10:25:37 51°29.817 2°25.503 5.8 10.9 6 30.4
2007-11-28 10:26:37 51°30 2°25.497 4 11 354 30.5
2007-11-28 10:27:37 51°30.183 2°25.488 6.4 10.8 1 33.6
2007-11-28 10:28:37 51°30.366 2°25.479 5.6 10.9 2 34.2
2007-11-28 10:29:37 51°30.548 2°25.471 8 11 5 38.7
2007-11-28 10:30:37 51°30.729 2°25.461 7.5 10.9 5 39.1
2007-11-28 10:31:37 51°30.902 2°25.498 20.6 10.3 13 39.9
2007-11-28 10:32:37 51°31.071 2°25.59 28.1 10.5 31 39.4
2007-11-28 10:33:37 51°31.236 2°25.696 32.5 10.8 28 39.8
2007-11-28 10:34:37 51°31.386 2°25.845 35.4 10.7 30 39.7
2007-11-28 10:35:37 51°31.539 2°25.988 33.8 10.3 28 38.8
2007-11-28 10:36:37 51°31.695 2°26.127 31.4 11 24 39.5
2007-11-28 10:37:37 51°31.847 2°26.272 32.2 11 32 37.7
2007-11-28 10:38:37 51°31.999 2°26.418 33.4 10.7 35 37.3
2007-11-28 10:39:37 51°32.154 2°26.554 33.1 10.7 28 38.6
2007-11-28 10:40:37 51°32.309 2°26.7 34.2 10.4 35 35.2
2007-11-28 10:41:37 51°32.466 2°26.841 32.5 11 31 38.2
2007-11-28 10:42:37 51°32.625 2°26.976 32.6 10.8 29 35.9
2007-11-28 10:43:37 51°32.779 2°27.116 34.6 10.7 30 38
2007-11-28 10:44:37 51°32.94 2°27.261 29.8 11 25 35.5
2007-11-28 10:45:37 51°33.098 2°27.405 31.2 10.7 23 37.9
2007-11-28 10:46:37 51°33.252 2°27.545 32 10.8 29 37.6
2007-11-28 10:47:37 51°33.41 2°27.68 33 11 33 37
2007-11-28 10:48:37 51°33.571 2°27.816 36.3 10.7 35 37.6
2007-11-28 10:49:37 51°33.732 2°27.952 31.1 10.6 24 36.7
2007-11-28 10:50:37 51°33.89 2°28.096 30.7 10.9 28 34.1
2007-11-28 10:51:37 51°34.046 2°28.24 34.5 11 36 76.9
2007-11-28 10:52:37 51°34.202 2°28.385 37 10.9 34 35.3
2007-11-28 10:53:37 51°34.36 2°28.523 33.7 11.2 25 35.2
2007-11-28 10:54:37 51°34.514 2°28.676 34.4 10.6 30 34.7
2007-11-28 10:55:37 51°34.664 2°28.835 33 9.8 33 32.4
2007-11-28 10:56:37 51°34.812 2°28.992 36.5 11 34 35
2007-11-28 10:57:37 51°34.968 2°29.144 33.6 10.6 31 35.9
2007-11-28 10:58:37 51°35.121 2°29.303 37.7 11.1 34 32.9
2007-11-28 10:59:37 51°35.274 2°29.472 39.8 10.8 35 35.7
2007-11-28 11:00:37 51°35.433 2°29.622 33.1 10.9 26 36.1
2007-11-28 11:01:37 51°35.588 2°29.768 31.6 11 22 -999
2007-11-28 11:02:37 51°35.748 2°29.914 33.9 11.6 23 34.9
2007-11-28 11:03:37 51°35.9 2°30.065 36.3 11.1 32 37.4
2007-11-28 11:04:37 51°36.057 2°30.214 34.4 11.2 32 35.6
2007-11-28 11:05:37 51°36.213 2°30.355 32.5 10.4 26 36.1
2007-11-28 11:06:37 51°36.366 2°30.506 36.1 10.5 39 35.3
2007-11-28 11:07:37 51°36.522 2°30.653 37 10.8 29 35.9
2007-11-28 11:08:37 51°36.676 2°30.807 36 10.9 33 36.3
2007-11-28 11:09:37 51°36.826 2°30.963 34.4 10.7 31 37.3
2007-11-28 11:10:37 51°36.98 2°31.119 34.3 11 27 37.8
2007-11-28 11:11:37 51°37.137 2°31.269 33.9 11.5 29 38.2
2007-11-28 11:12:37 51°37.293 2°31.424 33.5 11 29 38.9
2007-11-28 11:13:37 51°37.443 2°31.589 35.9 11.2 29 38.8
2007-11-28 11:14:37 51°37.598 2°31.746 39.1 10.9 36 39.4
2007-11-28 11:15:37 51°37.748 2°31.911 33.4 10.6 34 38.7
2007-11-28 11:16:37 51°37.906 2°32.062 34.2 11.4 32 40.3
2007-11-28 11:17:37 51°38.06 2°32.215 34.4 10.3 33 47.8
2007-11-28 11:18:37 51°38.216 2°32.369 32.6 11.3 25 41
2007-11-28 11:19:37 51°38.369 2°32.531 36.2 11.7 33 40.9
2007-11-28 11:20:37 51°38.523 2°32.695 41.5 11.1 36 42.2
2007-11-28 11:21:37 51°38.678 2°32.857 36.9 11.4 34 42.3
2007-11-28 11:22:37 51°38.835 2°33.023 34.3 12.1 28 40
2007-11-28 11:23:37 51°38.995 2°33.185 34.6 11.8 31 40.1
2007-11-28 11:24:37 51°39.155 2°33.349 34.8 11.6 30 40.5
2007-11-28 11:25:37 51°39.315 2°33.511 33.7 11.5 29 41.1
2007-11-28 11:26:37 51°39.478 2°33.666 31.7 11.3 27 46.4
2007-11-28 11:27:37 51°39.641 2°33.82 36.2 11.5 34 38.6
2007-11-28 11:28:37 51°39.807 2°33.973 35.1 11.1 31 41.9
2007-11-28 11:29:37 51°39.972 2°34.131 34.6 11.2 28 38.2
2007-11-28 11:30:37 51°40.13 2°34.292 38.1 11.3 30 37.8
2007-11-28 11:31:37 51°40.292 2°34.449 34.6 11.3 28 37.2
2007-11-28 11:32:37 51°40.454 2°34.604 37.1 11.6 29 37.9
2007-11-28 11:33:37 51°40.614 2°34.765 34.8 11.2 33 36.6
2007-11-28 11:34:37 51°40.775 2°34.926 36 11.8 35 35
2007-11-28 11:35:37 51°40.939 2°35.079 34.9 12.3 29 36
2007-11-28 11:36:37 51°41.096 2°35.248 36.2 11.3 31 34.2
2007-11-28 11:37:37 51°41.216 2°35.466 66.4 11 72 32.5
2007-11-28 11:38:37 51°41.256 2°35.767 82.6 11.3 84 30.2
2007-11-28 11:39:37 51°41.244 2°36.075 102.1 11.6 108 26.1
2007-11-28 11:40:37 51°41.161 2°36.366 113.1 12.1 121 47.7
2007-11-28 11:41:37 51°41.076 2°36.658 110 12.4 118 27.8
2007-11-28 11:42:37 51°40.995 2°36.959 110.6 12.3 109 35.4
2007-11-28 11:43:37 51°40.905 2°37.255 116.6 12.5 121 38
2007-11-28 11:44:37 51°40.802 2°37.542 116.9 12.5 123 38.8
2007-11-28 11:45:37 51°40.706 2°37.837 114.6 12.4 114 39.2
2007-11-28 11:46:37 51°40.609 2°38.13 115 12.4 120 42.8
2007-11-28 11:47:37 51°40.518 2°38.428 113.4 12.4 109 42.3
2007-11-28 11:48:37 51°40.422 2°38.724 116.8 12.5 119 45
2007-11-28 11:49:37 51°40.326 2°39.018 115.7 12.4 115 39.5
2007-11-28 11:50:37 51°40.234 2°39.313 113.7 12.6 117 36.9
2007-11-28 11:51:37 51°40.141 2°39.605 113.9 12.1 119 39.5
2007-11-28 11:52:37 51°40.052 2°39.899 117.3 12.4 118 38.9
2007-11-28 11:53:37 51°39.963 2°40.19 113 12.4 119 39
2007-11-28 11:54:37 51°39.873 2°40.482 113.5 12.1 119 33.5
2007-11-28 11:55:37 51°39.777 2°40.77 119 11.9 116 32.5
2007-11-28 11:56:37 51°39.682 2°41.063 114.5 12.4 115 31.7
2007-11-28 11:57:37 51°39.587 2°41.354 115.1 12.3 118 22.8
2007-11-28 11:58:37 51°39.438 2°41.581 148.5 12.7 148 28.4
2007-11-28 11:59:37 51°39.23 2°41.633 182.5 13.2 183 26
2007-11-28 12:00:37 51°39.038 2°41.487 225.5 12.5 224 22.2
2007-11-28 12:01:37 51°38.945 2°41.187 262.1 12.9 257 25.4
2007-11-28 12:02:37 51°38.89 2°40.856 256.9 12.7 252 32.2
2007-11-28 12:03:37 51°38.823 2°40.552 254.7 11.1 249 27.8
2007-11-28 12:04:37 51°38.755 2°40.265 253.3 12.1 249 33.4
2007-11-28 12:05:37 51°38.676 2°39.949 252.3 12.4 248 33.5
2007-11-28 12:06:37 51°38.593 2°39.636 251 12.7 245 31.5
2007-11-28 12:07:37 51°38.512 2°39.326 250.9 12.4 246 37.8
2007-11-28 12:08:38 51°38.435 2°39.017 251.3 12.1 248 39.4
2007-11-28 12:09:37 51°38.356 2°38.711 251.8 12.9 248 40.9
2007-11-28 12:10:37 51°38.281 2°38.396 252.1 12.2 248 41.1
2007-11-28 12:11:37 51°38.206 2°38.083 252.8 12.5 250 37.7
2007-11-28 12:12:37 51°38.134 2°37.774 252.2 12.4 249 37
2007-11-28 12:13:37 51°38.062 2°37.463 254.3 12.2 252 41.4
2007-11-28 12:14:37 51°37.994 2°37.15 254.8 12.3 252 40.3
2007-11-28 12:15:37 51°37.926 2°36.84 253.6 12.7 249 40.7
2007-11-28 12:16:37 51°37.855 2°36.524 254 12.1 250 40.4
2007-11-28 12:17:37 51°37.789 2°36.218 254.2 11.9 251 -999
2007-11-28 12:18:37 51°37.725 2°35.916 254.7 11.7 250 38.7
2007-11-28 12:19:37 51°37.656 2°35.609 254.3 12.6 251 38
2007-11-28 12:20:37 51°37.582 2°35.29 253.2 12.3 251 34
2007-11-28 12:21:37 51°37.517 2°34.986 254 12.2 250 30.9
2007-11-28 12:22:39 51°37.453 2°34.679 255.2 11.7 251 25.8
2007-11-28 12:23:37 51°37.389 2°34.379 254 12.4 251 19.2
2007-11-28 12:24:37 51°37.318 2°34.077 246.5 12.3 242 27.2
2007-11-28 12:25:37 51°37.163 2°33.881 206.9 12.6 206 28.6
2007-11-28 12:26:37 51°36.96 2°33.787 193.6 12.8 193 31.6
2007-11-28 12:27:37 51°36.759 2°33.715 194.2 12.3 193 31.9
2007-11-28 12:28:38 51°36.56 2°33.638 196.6 12.2 195 33.3
2007-11-28 12:29:37 51°36.365 2°33.552 197.1 12.6 197 33.3
2007-11-28 12:30:37 51°36.165 2°33.463 197 12.7 196 32.7
2007-11-28 12:31:37 51°35.962 2°33.369 197.3 12.7 197 33.5
2007-11-28 12:32:37 51°35.762 2°33.277 197.8 11.9 195 -999
2007-11-28 12:33:37 51°35.568 2°33.19 197.7 11.8 195 32.2
2007-11-28 12:34:37 51°35.368 2°33.101 197.5 12.4 194 31.7
2007-11-28 12:35:37 51°35.168 2°33.013 197.8 12.5 196 30
2007-11-28 12:36:37 51°34.971 2°32.93 197.7 12.4 195 28.5
2007-11-28 12:37:37 51°34.777 2°32.85 198.1 11.9 194 25.3
2007-11-28 12:38:37 51°34.582 2°32.77 198.4 12.8 194 26
2007-11-28 12:39:37 51°34.383 2°32.686 197.7 12 195 26.7
2007-11-28 12:40:37 51°34.191 2°32.609 198.2 12.1 195 28.2
2007-11-28 12:41:37 51°33.995 2°32.523 198.4 12.3 194 28.2
2007-11-28 12:42:37 51°33.796 2°32.436 198.7 12.2 195 27.4
2007-11-28 12:43:37 51°33.599 2°32.354 198.1 11.9 194 30.6
2007-11-28 12:44:37 51°33.401 2°32.269 198.5 12.1 196 31.2
2007-11-28 12:45:37 51°33.196 2°32.237 185.1 12.3 181 30
2007-11-28 12:46:37 51°32.991 2°32.228 185.9 12.3 183 24.5
2007-11-28 12:47:37 51°32.788 2°32.22 185.9 12 180 28.3
2007-11-28 12:48:37 51°32.583 2°32.207 186.1 12.1 181 28.3
2007-11-28 12:49:37 51°32.379 2°32.194 186 12.3 183 34.2
2007-11-28 12:50:37 51°32.175 2°32.178 186.7 12.4 183 36.5
2007-11-28 12:51:37 51°31.973 2°32.166 184.8 11.9 182 33.8
2007-11-28 12:52:37 51°31.77 2°32.154 186.1 12.2 184 37.1
2007-11-28 12:53:37 51°31.566 2°32.159 177.8 12.1 172 37
2007-11-28 12:54:37 51°31.366 2°32.209 174.4 12.3 171 37.6
2007-11-28 12:55:37 51°31.167 2°32.261 174.4 12.1 171 36.8
2007-11-28 12:56:37 51°30.969 2°32.318 172.7 12.3 168 36.2
2007-11-28 12:57:37 51°30.774 2°32.403 166.2 12.3 160 35.7
2007-11-28 12:58:37 51°30.58 2°32.511 164.5 12.3 159 33.2
2007-11-28 12:59:37 51°30.388 2°32.635 161.1 12.4 156 28.9
2007-11-28 13:00:37 51°30.2 2°32.778 157.7 12.6 151 26
2007-11-28 13:01:37 51°30.014 2°32.932 156.8 12.5 152 24.2
2007-11-28 13:02:37 51°29.843 2°33.127 140.1 13 133 24.5
2007-11-28 13:03:37 51°29.73 2°33.427 123.3 13.2 118 18.1
2007-11-28 13:04:37 51°29.624 2°33.744 124.9 13.5 118 18.5
2007-11-28 13:05:37 51°29.51 2°34.051 124.6 13.2 122 34.9
2007-11-28 13:06:37 51°29.373 2°34.318 135.7 12.9 132 39.8
2007-11-28 13:07:37 51°29.228 2°34.57 135.8 12.9 131 39.5
2007-11-28 13:08:37 51°29.084 2°34.825 136.4 12.7 131 40.6
2007-11-28 13:09:37 51°28.942 2°35.083 135.6 12.8 131 37
2007-11-28 13:10:37 51°28.803 2°35.343 135.1 12.7 129 38.3
2007-11-28 13:11:37 51°28.664 2°35.605 136.5 12.9 131 36
2007-11-28 13:12:37 51°28.523 2°35.868 134.7 13 128 30.4
2007-11-28 13:13:37 51°28.383 2°36.132 135 13.1 130 29.1
2007-11-28 13:14:37 51°28.242 2°36.396 136.8 13 127 36
2007-11-28 13:15:37 51°28.1 2°36.656 134.9 12.9 130 37.6
2007-11-28 13:16:37 51°27.96 2°36.912 135.3 12.7 129 37.6
2007-11-28 13:17:37 51°27.819 2°37.165 134.7 13 126 38.3
2007-11-28 13:18:37 51°27.676 2°37.413 136 12.6 134 35.7
2007-11-28 13:19:37 51°27.538 2°37.668 136 12.6 130 34.4
2007-11-28 13:20:37 51°27.399 2°37.924 134.6 12.7 133 35.1
2007-11-28 13:21:37 51°27.257 2°38.182 135.3 12.8 133 34.1
2007-11-28 13:22:37 51°27.117 2°38.442 135.1 12.8 132 35.3
2007-11-28 13:23:37 51°26.977 2°38.701 134.8 12.9 132 36
2007-11-28 13:24:37 51°26.836 2°38.958 136.4 12.9 134 35.3
2007-11-28 13:25:37 51°26.694 2°39.214 135.1 12.9 131 34.6
2007-11-28 13:26:37 51°26.553 2°39.469 136.4 12.7 135 35.6
2007-11-28 13:27:37 51°26.414 2°39.726 135.4 12.6 135 33.8
2007-11-28 13:28:37 51°26.277 2°39.987 135.9 12.9 130 33.9
2007-11-28 13:29:37 51°26.125 2°40.222 142 12.5 138 33
2007-11-28 13:30:37 51°25.972 2°40.454 141.4 12.7 136 33
2007-11-28 13:31:37 51°25.818 2°40.682 141.3 12.4 139 31.1
2007-11-28 13:32:37 51°25.667 2°40.916 141.5 12.4 137 29.6
2007-11-28 13:33:37 51°25.518 2°41.147 141.8 12.6 136 29.9
2007-11-28 13:34:37 51°25.367 2°41.377 140.5 12.6 137 26
2007-11-28 13:35:37 51°25.215 2°41.607 145.1 12.5 138 28.2
2007-11-28 13:36:37 51°25.046 2°41.784 155 12.1 150 28.2
2007-11-28 13:37:37 51°24.868 2°41.928 159 11.8 154 26.2
2007-11-28 13:38:37 51°24.691 2°42.075 158 12.1 149 25.6
2007-11-28 13:39:37 51°24.514 2°42.221 158.2 12 154 26.6
2007-11-28 13:40:37 51°24.348 2°42.401 148.4 11.9 140 21.7
2007-11-28 13:41:37 51°24.188 2°42.607 148.9 12.5 141 25.2
2007-11-28 13:42:37 51°24.024 2°42.808 154.1 12.4 148 27.2
2007-11-28 13:43:37 51°23.843 2°42.954 163.4 12.2 154 26.7
2007-11-28 13:44:37 51°23.658 2°43.089 163.1 12.3 157 26.9
2007-11-28 13:45:37 51°23.474 2°43.226 162.9 12.2 155 28.5
2007-11-28 13:46:37 51°23.293 2°43.365 162.9 12 154 28.8
2007-11-28 13:47:37 51°23.112 2°43.497 162.5 12 156 28.9
2007-11-28 13:48:37 51°22.938 2°43.652 156.5 12.1 147 29.6
2007-11-28 13:49:37 51°22.784 2°43.871 142.9 12.6 135 28.5
2007-11-28 13:50:37 51°22.631 2°44.095 144.3 12.6 139 27.4
2007-11-28 13:51:37 51°22.478 2°44.322 145.4 12.4 138 28.7
2007-11-28 13:52:37 51°22.327 2°44.551 143.6 12.8 133 27.8
2007-11-28 13:53:37 51°22.173 2°44.778 144.4 12.5 137 26.8
2007-11-28 13:54:37 51°22.02 2°45.004 145.1 12.4 140 25.9
2007-11-28 13:55:37 51°21.866 2°45.231 145.8 12.7 137 25.2
2007-11-28 13:56:37 51°21.711 2°45.458 146 12.6 138 25.8
2007-11-28 13:57:37 51°21.557 2°45.686 145.3 12.7 138 27.7
2007-11-28 13:58:37 51°21.402 2°45.917 143.8 12.7 139 28.8
2007-11-28 13:59:37 51°21.251 2°46.155 143.6 12.9 135 27.9
2007-11-28 14:00:37 51°21.106 2°46.404 143.3 13 129 27.6
2007-11-28 14:01:37 51°20.959 2°46.65 142.6 12.9 133 25.7
2007-11-28 14:02:37 51°20.811 2°46.897 144.4 12.9 133 24
2007-11-28 14:03:37 51°20.663 2°47.146 143.7 12.9 133 21.7
2007-11-28 14:04:37 51°20.512 2°47.393 143.7 12.9 137 20.6
2007-11-28 14:05:37 51°20.361 2°47.639 142.9 12.9 135 23
2007-11-28 14:06:37 51°20.212 2°47.886 143.7 12.7 134 24.7
2007-11-28 14:07:37 51°20.067 2°48.135 143.7 12.4 134 25
2007-11-28 14:08:37 51°19.925 2°48.379 143.1 12.3 137 24.8
2007-11-28 14:09:37 51°19.786 2°48.624 142 12.3 132 24
2007-11-28 14:10:37 51°19.643 2°48.863 142.9 12.5 134 21.4
2007-11-28 14:11:37 51°19.497 2°49.102 143.7 12.7 136 19.2
2007-11-28 14:12:37 51°19.353 2°49.345 143.2 12.9 132 17.2
2007-11-28 14:13:37 51°19.205 2°49.589 141.7 12.8 133 14.7
2007-11-28 14:14:37 51°19.053 2°49.829 144.2 12.7 133 14.3
2007-11-28 14:15:37 51°18.904 2°50.077 142.9 13 131 15.6
2007-11-28 14:16:37 51°18.754 2°50.319 144.6 12.7 136 17.1
2007-11-28 14:17:37 51°18.606 2°50.562 144 12.6 135 17.3
2007-11-28 14:18:37 51°18.463 2°50.809 142.9 12.8 129 16.8
2007-11-28 14:19:37 51°18.318 2°51.05 144.1 12.5 133 16.2
2007-11-28 14:20:37 51°18.174 2°51.288 145.7 12.3 136 15.1
2007-11-28 14:21:37 51°18.02 2°51.507 149.5 12.6 138 13.8
2007-11-28 14:22:37 51°17.85 2°51.677 158.2 11.9 150 13.2
2007-11-28 14:23:37 51°17.678 2°51.842 157.1 12.2 147 13.3
2007-11-28 14:24:37 51°17.506 2°52.007 157.7 12 150 13.7
2007-11-28 14:25:37 51°17.334 2°52.174 157.2 12.2 150 13.5
2007-11-28 14:26:37 51°17.162 2°52.345 156.8 12.2 146 13.2
2007-11-28 14:27:37 51°16.984 2°52.498 163 12 154 12.7
2007-11-28 14:28:37 51°16.805 2°52.641 161.3 12.1 152 12.8
2007-11-28 14:29:37 51°16.623 2°52.787 162.3 12.2 152 14.5
2007-11-28 14:30:37 51°16.444 2°52.943 162.2 12.2 151 14.7
2007-11-28 14:31:37 51°16.269 2°53.106 163.9 12 151 14.7
2007-11-28 14:32:37 51°16.097 2°53.264 163.3 11.9 151 14.6
2007-11-28 14:33:37 51°15.923 2°53.417 163.3 12.1 149 14.4
2007-11-28 14:34:37 51°15.75 2°53.57 163.1 11.9 153 14.1
2007-11-28 14:35:37 51°15.574 2°53.72 162.4 11.8 153 13.7
2007-11-28 14:36:37 51°15.399 2°53.871 163.4 11.6 154 13
2007-11-28 14:37:37 51°15.225 2°54.014 162 12 152 12.5
2007-11-28 14:38:37 51°15.049 2°54.152 162.5 11.7 154 12.1
2007-11-28 14:39:37 51°14.877 2°54.31 155.5 12.1 146 12.5
2007-11-28 14:40:37 51°14.711 2°54.49 158.9 12.1 146 13
2007-11-28 14:41:37 51°14.562 2°54.714 145.8 12.5 136 13
2007-11-28 14:42:37 51°14.425 2°54.967 142.8 12.4 132 13.8
2007-11-28 14:43:37 51°14.287 2°55.207 133.5 11.6 131 13.6
2007-11-28 14:44:41 51°14.153 2°55.392 153.4 8.1 153 -999
2007-11-28 14:45:40 51°14.052 2°55.466 158 6.2 156 13.7
2007-11-28 14:46:39 51°13.96 2°55.534 157.8 6.2 155 13.8
2007-11-28 14:47:37 51°13.869 2°55.603 157 6.2 154 13.8
2007-11-28 14:48:41 51°13.775 2°55.693 145.5 6.1 144 -999
2007-11-28 14:49:41 51°13.704 2°55.809 132.2 6.2 130 -999
2007-11-28 14:50:41 51°13.648 2°55.923 128.4 4.5 126 -999
2007-11-28 14:51:41 51°13.615 2°56.01 116.4 3.5 113 -999
2007-11-28 14:52:41 51°13.601 2°56.08 115.4 1.6 107 -999
2007-11-28 14:53:41 51°13.597 2°56.093 125.7 0.2 118 -999